Time;durP1;ratioP1;P1;durP2;ratioP2;P2;SDS_P1;SDS_P2;PMS_P1;PMS_P2;Temp;Humidity;BMP_temperature;BMP_pressure;BME280_temperature;BME280_humidity;BME280_pressure;Samples;Min_cycle;Max_cycle;Signal;HPM_P1;HPM_P2
2021/04/25 00:01:18;;;;;;;7.37;4.58;;;;;;;0.06;74.83;99784.45;1822142;78;23638;-60
2021/04/25 00:03:45;;;;;;;8.78;5.25;;;;;;;0.06;75.11;99787.43;1806375;79;21104;-60
2021/04/25 00:06:13;;;;;;;8.70;5.03;;;;;;;0.04;75.16;99786.14;1822233;78;21532;-60
2021/04/25 00:08:42;;;;;;;8.85;5.40;;;;;;;0.03;75.25;99788.27;1806418;79;21492;-60
2021/04/25 00:11:09;;;;;;;8.60;4.58;;;;;;;0.02;75.41;99782.72;1822266;78;21476;-60
2021/04/25 00:13:36;;;;;;;10.15;5.08;;;;;;;0.03;75.52;99783.58;1806416;78;21259;-60
2021/04/25 00:16:05;;;;;;;10.20;4.95;;;;;;;0.03;75.54;99779.73;1822101;78;21147;-60
2021/04/25 00:18:34;;;;;;;8.70;5.65;;;;;;;0.02;75.64;99779.30;1806499;79;21088;-60
2021/04/25 00:21:03;;;;;;;6.72;5.05;;;;;;;0.03;75.59;99779.73;1822196;78;21571;-60
2021/04/25 00:23:31;;;;;;;8.55;5.05;;;;;;;0.04;75.56;99779.75;1806417;78;21044;-60
2021/04/25 00:25:58;;;;;;;6.65;4.05;;;;;;;0.06;75.63;99775.92;1822130;78;21278;-60
2021/04/25 00:28:26;;;;;;;6.85;4.10;;;;;;;0.07;75.79;99777.21;1806330;79;21982;-60
2021/04/25 00:30:53;;;;;;;6.50;3.90;;;;;;;0.08;75.92;99776.37;1822085;78;21107;-60
2021/04/25 00:33:22;;;;;;;7.40;4.42;;;;;;;0.07;76.02;99776.36;1752283;79;21072;-61
2021/04/25 00:35:50;;;;;;;9.73;5.37;;;;;;;0.05;76.14;99764.84;1822150;78;21048;-60
2021/04/25 00:38:18;;;;;;;9.78;6.37;;;;;;;0.05;76.16;99764.84;1806399;79;21205;-60
2021/04/25 00:40:45;;;;;;;11.08;6.35;;;;;;;0.02;76.11;99768.66;1822091;78;21154;-60
2021/04/25 00:43:13;;;;;;;10.53;6.10;;;;;;;-0.01;76.06;99762.27;1806399;79;21079;-60
2021/04/25 00:45:40;;;;;;;10.55;6.37;;;;;;;-0.03;76.00;99767.80;1822054;78;21858;-60
2021/04/25 00:48:07;;;;;;;7.83;5.28;;;;;;;-0.06;75.97;99756.27;1822169;78;21575;-60
2021/04/25 00:50:35;;;;;;;8.05;5.12;;;;;;;-0.09;75.96;99756.24;1806365;79;22467;-60
2021/04/25 00:53:03;;;;;;;7.45;4.58;;;;;;;-0.12;76.13;99754.94;1822089;78;21142;-60
2021/04/25 00:55:31;;;;;;;10.50;4.58;;;;;;;-0.13;76.25;99757.06;1792529;78;21491;-60
2021/04/25 00:57:59;;;;;;;7.58;4.67;;;;;;;-0.15;76.45;99742.99;1806374;79;21051;-60
2021/04/25 01:00:26;;;;;;;9.48;4.50;;;;;;;-0.15;76.54;99747.25;1824853;78;21027;-60
2021/04/25 01:02:56;;;;;;;6.72;4.97;;;;;;;-0.16;76.61;99737.87;1811573;79;21376;-61
2021/04/25 01:05:25;;;;;;;11.70;4.87;;;;;;;-0.17;76.71;99742.55;1825281;78;21106;-61
2021/04/25 01:07:53;;;;;;;9.85;5.20;;;;;;;-0.22;76.59;99741.27;1812336;79;21147;-61
2021/04/25 01:10:20;;;;;;;9.60;4.75;;;;;;;-0.25;76.72;99741.66;1825404;78;21047;-61
2021/04/25 01:12:48;;;;;;;6.87;4.42;;;;;;;-0.29;76.74;99731.84;1812328;79;21508;-61
2021/04/25 01:15:16;;;;;;;9.65;4.30;;;;;;;-0.29;76.76;99733.54;1825322;78;21386;-60
2021/04/25 01:17:46;;;;;;;6.90;3.70;;;;;;;-0.31;76.74;99730.11;1825246;78;21103;-60
2021/04/25 01:20:17;;;;;;;8.25;4.60;;;;;;;-0.33;76.71;99731.38;1812439;79;21512;-60
2021/04/25 01:22:45;;;;;;;10.30;6.67;;;;;;;-0.35;76.73;99729.23;1825306;78;21107;-60
2021/04/25 01:25:16;;;;;;;16.55;6.78;;;;;;;-0.35;76.64;99731.80;1812310;79;21099;-60
2021/04/25 01:27:43;;;;;;;11.90;6.20;;;;;;;-0.37;76.48;99727.95;1825415;78;22178;-60
2021/04/25 01:30:14;;;;;;;7.30;4.15;;;;;;;-0.38;76.49;99727.52;1812280;79;21071;-60
2021/04/25 01:32:42;;;;;;;6.78;4.20;;;;;;;-0.39;76.65;99724.94;1825309;78;21167;-59
2021/04/25 01:35:21;;;;;;;6.75;3.25;;;;;;;-0.40;76.81;99723.27;1825302;78;21055;-59
2021/04/25 01:37:48;;;;;;;6.75;3.87;;;;;;;-0.43;76.99;99720.27;1812226;79;21131;-60
2021/04/25 01:40:16;;;;;;;7.03;4.22;;;;;;;-0.43;77.04;99717.70;1825270;78;21339;-59
2021/04/25 01:42:45;;;;;;;12.60;7.70;;;;;;;-0.44;77.01;99716.00;1825210;78;21107;-60
2021/04/25 01:45:17;;;;;;;15.98;8.38;;;;;;;-0.44;76.64;99716.41;1812315;79;21112;-60
2021/04/25 01:47:51;;;;;;;16.55;9.40;;;;;;;-0.46;76.34;99714.27;1825316;78;21126;-60
2021/04/25 01:50:21;;;;;;;22.37;11.90;;;;;;;-0.50;76.18;99715.09;1812334;79;21067;-60
2021/04/25 01:52:48;;;;;;;20.88;10.50;;;;;;;-0.52;76.10;99716.77;1825294;78;21366;-60
2021/04/25 01:55:17;;;;;;;13.00;6.45;;;;;;;-0.55;76.16;99715.05;1824915;78;45253;-60
2021/04/25 01:57:46;;;;;;;12.37;6.47;;;;;;;-0.55;76.32;99714.20;1812279;79;21112;-60
2021/04/25 02:00:30;;;;;;;10.25;4.50;;;;;;;-0.55;76.57;99716.75;1825181;78;22060;-59
2021/04/25 02:02:59;;;;;;;7.20;4.45;;;;;;;-0.50;76.77;99709.56;1812384;79;21465;-59
2021/04/25 02:05:27;;;;;;;5.50;3.47;;;;;;;-0.42;76.86;99708.34;1825284;78;21361;-60
2021/04/25 02:07:55;;;;;;;4.58;3.35;;;;;;;-0.36;76.80;99707.94;1825224;78;21111;-59
2021/04/25 02:10:23;;;;;;;5.78;3.85;;;;;;;-0.28;76.61;99702.88;1812277;79;21119;-60
2021/04/25 02:12:51;;;;;;;6.28;3.92;;;;;;;-0.20;76.35;99702.94;1825253;78;21079;-60
2021/04/25 02:15:19;;;;;;;14.13;7.53;;;;;;;-0.13;76.14;99703.37;1825224;78;21059;-60
2021/04/25 02:17:46;;;;;;;7.85;4.30;;;;;;;-0.07;75.88;99700.86;1812282;79;21379;-60
2021/04/25 02:20:17;;;;;;;6.75;4.62;;;;;;;-0.03;75.67;99710.27;1825179;78;21571;-59
2021/04/25 02:22:44;;;;;;;6.87;4.50;;;;;;;0.03;75.47;99703.87;1825270;78;21095;-60
2021/04/25 02:25:14;;;;;;;9.00;5.97;;;;;;;0.09;75.24;99697.95;1812259;79;21151;-60
2021/04/25 02:27:42;;;;;;;13.32;7.47;;;;;;;0.14;75.04;99698.41;1825256;78;21139;-59
2021/04/25 02:30:19;;;;;;;15.63;7.10;;;;;;;0.21;74.85;99697.55;1812272;79;21234;-60
2021/04/25 02:32:47;;;;;;;10.38;6.25;;;;;;;0.26;74.62;99701.00;1825241;78;21063;-59
2021/04/25 02:35:16;;;;;;;11.78;7.72;;;;;;;0.28;74.36;99701.00;1825346;78;21504;-60
2021/04/25 02:37:43;;;;;;;13.08;6.03;;;;;;;0.29;74.08;99697.59;1812280;78;21143;-60
2021/04/25 02:40:15;;;;;;;10.50;5.72;;;;;;;0.28;73.96;99700.58;1825249;78;21492;-60
2021/04/25 02:42:43;;;;;;;9.53;5.65;;;;;;;0.28;73.83;99701.00;1825299;78;22072;-60
2021/04/25 02:45:15;;;;;;;7.47;4.42;;;;;;;0.26;73.66;99701.42;1825284;78;21487;-60
2021/04/25 02:47:51;;;;;;;15.63;4.90;;;;;;;0.23;73.71;99704.81;1825420;78;21123;-61
2021/04/25 02:50:20;;;;;;;9.83;5.25;;;;;;;0.22;73.68;99707.36;1825361;78;21051;-60
2021/04/25 02:52:48;;;;;;;7.97;5.12;;;;;;;0.19;73.70;99703.13;1812395;78;21101;-60
2021/04/25 02:55:15;;;;;;;6.97;4.80;;;;;;;0.17;73.62;99704.81;1825308;78;21376;-60
2021/04/25 02:57:43;;;;;;;7.87;4.33;;;;;;;0.15;73.59;99703.95;1812352;78;21135;-60
2021/04/25 03:00:14;;;;;;;9.38;5.42;;;;;;;0.14;73.51;99707.78;1825276;78;21044;-60
2021/04/25 03:02:42;;;;;;;8.68;4.80;;;;;;;0.15;73.43;99705.23;1812478;79;21140;-60
2021/04/25 03:05:11;;;;;;;7.55;5.05;;;;;;;0.15;73.28;99707.79;1825413;78;21047;-59
2021/04/25 03:07:38;;;;;;;8.38;4.67;;;;;;;0.18;73.09;99703.97;1812534;79;21350;-60
2021/04/25 03:10:07;;;;;;;10.13;5.90;;;;;;;0.25;72.93;99706.10;1825331;78;21126;-59
2021/04/25 03:12:36;;;;;;;10.53;6.80;;;;;;;0.29;72.67;99697.17;1812452;79;21107;-60
2021/04/25 03:15:06;;;;;;;8.38;5.33;;;;;;;0.34;72.50;99706.16;1825478;78;21106;-59
2021/04/25 03:17:33;;;;;;;8.03;5.87;;;;;;;0.38;72.48;99700.62;1825383;78;21130;-59
2021/04/25 03:20:03;;;;;;;12.85;6.53;;;;;;;0.54;72.46;99700.66;1812386;79;21431;-60
2021/04/25 03:22:30;;;;;;;18.00;8.55;;;;;;;0.88;72.13;99704.13;1825347;78;21064;-60
2021/04/25 03:24:59;;;;;;;17.07;8.75;;;;;;;1.32;71.44;99699.45;1812410;78;21469;-60
2021/04/25 03:27:26;;;;;;;11.78;8.20;;;;;;;1.78;70.47;99700.67;1825472;78;21555;-60
2021/04/25 03:29:54;;;;;;;10.90;8.23;;;;;;;2.22;69.12;99693.66;1812428;79;21119;-60
2021/04/25 03:32:22;;;;;;;13.68;8.13;;;;;;;2.68;68.04;99698.56;1825350;78;21335;-60
2021/04/25 03:34:49;;;;;;;15.78;8.43;;;;;;;3.14;66.80;99695.25;1812350;79;21063;-60
2021/04/25 03:37:16;;;;;;;10.48;7.30;;;;;;;3.59;65.67;99692.72;1825329;78;21084;-60
2021/04/25 03:39:44;;;;;;;10.03;6.97;;;;;;;4.03;64.69;99687.07;1825364;78;21131;-60
2021/04/25 03:42:11;;;;;;;12.53;8.40;;;;;;;4.37;63.35;99686.24;1812459;78;21493;-59
2021/04/25 03:44:39;;;;;;;13.38;8.65;;;;;;;4.70;62.44;99684.07;1825470;78;22103;-60
2021/04/25 03:47:07;;;;;;;17.27;9.35;;;;;;;5.08;61.49;99688.20;1812295;78;21528;-62
2021/04/25 03:49:35;;;;;;;10.53;8.48;;;;;;;5.53;60.81;99689.18;1825375;78;21075;-59
2021/04/25 03:52:05;;;;;;;15.08;8.25;;;;;;;6.00;59.38;99688.75;1825341;78;21150;-60
2021/04/25 03:54:32;;;;;;;9.50;5.90;;;;;;;6.44;57.92;99681.83;1812519;79;21611;-59
2021/04/25 03:57:00;;;;;;;12.90;7.45;;;;;;;6.89;55.72;99682.55;1825336;78;21480;-59
2021/04/25 03:59:28;;;;;;;13.58;9.38;;;;;;;7.18;53.87;99683.17;1811826;79;21492;-60
2021/04/25 04:01:55;;;;;;;15.63;11.83;;;;;;;7.38;52.98;99673.63;1822179;78;21226;-59
2021/04/25 04:04:22;;;;;;;17.62;11.35;;;;;;;7.63;52.40;99673.82;1806425;79;21151;-59
2021/04/25 04:06:50;;;;;;;15.45;10.60;;;;;;;7.94;51.12;99670.83;1822148;78;21048;-59
2021/04/25 04:09:18;;;;;;;19.70;12.40;;;;;;;8.11;50.27;99670.36;1806425;79;21370;-59
2021/04/25 04:11:45;;;;;;;19.45;10.63;;;;;;;8.28;49.78;99675.45;1822062;78;21950;-59
2021/04/25 04:14:13;;;;;;;14.35;10.00;;;;;;;8.51;49.00;99669.63;1806448;79;21151;-60
2021/04/25 04:16:40;;;;;;;10.35;7.05;;;;;;;8.68;48.57;99669.12;1822099;78;21899;-60
2021/04/25 04:19:08;;;;;;;6.20;5.15;;;;;;;8.99;48.12;99672.92;1806440;79;21056;-60
2021/04/25 04:21:37;;;;;;;6.75;4.87;;;;;;;9.35;46.98;99670.88;1822098;78;21491;-60
2021/04/25 04:24:05;;;;;;;6.42;5.40;;;;;;;9.62;45.54;99675.56;1806317;79;21122;-60
2021/04/25 04:26:33;;;;;;;10.25;5.50;;;;;;;9.74;44.62;99676.91;1822134;78;21134;-59
2021/04/25 04:29:00;;;;;;;10.05;5.45;;;;;;;9.74;44.26;99683.41;1806400;79;21063;-61
2021/04/25 04:31:28;;;;;;;9.23;5.60;;;;;;;9.68;44.52;99677.52;1822147;78;21048;-61
2021/04/25 04:33:56;;;;;;;8.60;5.92;;;;;;;9.83;44.79;99672.22;1806499;79;22256;-60
2021/04/25 04:36:25;;;;;;;7.25;5.20;;;;;;;10.14;44.14;99681.54;1822035;78;21115;-60
2021/04/25 04:38:53;;;;;;;8.00;5.00;;;;;;;10.32;42.99;99678.30;1806403;79;21554;-60
2021/04/25 04:41:21;;;;;;;6.17;4.67;;;;;;;10.32;42.63;99671.34;1822100;78;21063;-60
2021/04/25 04:43:48;;;;;;;9.80;5.20;;;;;;;10.26;42.77;99670.27;1822165;78;21044;-59
2021/04/25 04:46:17;;;;;;;11.83;6.25;;;;;;;10.25;42.66;99674.22;1806405;79;21182;-61
2021/04/25 04:48:44;;;;;;;8.55;6.37;;;;;;;10.32;42.71;99667.45;1822158;78;21123;-61
2021/04/25 04:51:13;;;;;;;9.08;6.42;;;;;;;10.44;42.44;99667.88;1806408;79;21162;-61
2021/04/25 04:53:40;;;;;;;12.90;5.60;;;;;;;10.53;42.32;99664.49;1822074;78;21079;-61
2021/04/25 04:56:07;;;;;;;10.08;5.65;;;;;;;10.65;41.49;99660.11;1822150;78;21107;-61
2021/04/25 04:58:35;;;;;;;12.50;6.85;;;;;;;10.67;41.81;99654.84;1822077;78;21208;-60
2021/04/25 05:01:03;;;;;;;19.77;6.03;;;;;;;10.82;41.62;99655.99;1821951;78;21150;-60
2021/04/25 05:03:30;;;;;;;8.78;5.08;;;;;;;11.10;41.22;99646.64;1806472;79;21484;-60
2021/04/25 05:05:58;;;;;;;6.47;4.97;;;;;;;11.37;40.79;99650.72;1822190;78;21047;-60
2021/04/25 05:08:27;;;;;;;7.40;4.87;;;;;;;11.54;40.33;99640.44;1806344;79;21068;-61
2021/04/25 05:10:56;;;;;;;9.15;5.55;;;;;;;11.72;39.92;99630.52;1822138;78;21122;-60
2021/04/25 05:13:23;;;;;;;10.82;5.72;;;;;;;11.87;39.46;99633.39;1806298;79;21123;-60
2021/04/25 05:15:51;;;;;;;8.70;4.72;;;;;;;11.92;39.62;99643.16;1822079;78;21067;-60
2021/04/25 05:18:18;;;;;;;7.95;4.92;;;;;;;11.93;38.83;99646.16;1806291;79;21044;-60
2021/04/25 05:20:47;;;;;;;7.20;4.78;;;;;;;11.67;39.04;99645.50;1822097;78;21080;-61
2021/04/25 05:23:15;;;;;;;8.53;5.33;;;;;;;11.38;39.72;99648.51;1806344;79;23586;-60
2021/04/25 05:25:42;;;;;;;7.80;5.10;;;;;;;11.18;40.45;99648.48;1822006;78;21186;-60
2021/04/25 05:28:10;;;;;;;7.45;4.67;;;;;;;11.01;40.70;99651.75;1806348;79;21076;-60
2021/04/25 05:30:38;;;;;;;10.32;5.12;;;;;;;10.89;40.89;99657.45;1822175;78;21068;-61
2021/04/25 05:33:05;;;;;;;7.85;4.67;;;;;;;10.70;41.36;99656.88;1822073;78;21753;-60
2021/04/25 05:35:33;;;;;;;7.47;4.35;;;;;;;10.55;41.72;99660.53;1806333;79;21385;-60
2021/04/25 05:38:01;;;;;;;6.03;4.55;;;;;;;10.44;42.29;99657.48;1821976;78;21072;-61
2021/04/25 05:40:28;;;;;;;7.85;4.62;;;;;;;10.44;42.28;99650.52;1806338;79;21084;-61
2021/04/25 05:42:56;;;;;;;5.85;5.10;;;;;;;10.42;42.46;99648.43;1822058;78;21139;-62
2021/04/25 05:45:24;;;;;;;6.42;4.60;;;;;;;10.47;42.32;99646.52;1806323;79;21132;-60
2021/04/25 05:47:54;;;;;;;8.98;4.55;;;;;;;10.48;42.33;99650.81;1822128;78;21469;-62
2021/04/25 05:50:23;;;;;;;8.33;4.42;;;;;;;10.47;42.32;99648.27;1806382;79;21091;-62
2021/04/25 05:52:50;;;;;;;5.92;4.90;;;;;;;10.45;42.17;99649.63;1822055;78;21048;-61
2021/04/25 05:55:18;;;;;;;15.83;9.85;;;;;;;10.44;42.66;99654.42;1806365;79;21251;-60
2021/04/25 05:57:46;;;;;;;9.78;6.33;;;;;;;10.46;42.80;99648.72;1821997;78;21130;-61
2021/04/25 06:00:17;;;;;;;10.10;5.65;;;;;;;10.55;43.02;99654.03;1806162;79;21209;-62
2021/04/25 06:02:45;;;;;;;8.50;4.67;;;;;;;10.66;42.98;99648.80;1822024;78;21067;-60
2021/04/25 06:05:12;;;;;;;9.55;5.50;;;;;;;10.76;42.35;99640.64;1806393;79;21595;-61
2021/04/25 06:07:42;;;;;;;9.85;5.17;;;;;;;10.77;42.26;99644.49;1822150;78;21052;-60
2021/04/25 06:10:12;;;;;;;16.00;5.35;;;;;;;10.77;42.27;99644.95;1806330;79;21077;-60
2021/04/25 06:12:39;;;;;;;28.23;6.95;;;;;;;10.77;42.70;99644.49;1822058;78;21449;-60
2021/04/25 06:15:07;;;;;;;6.30;4.17;;;;;;;10.88;42.90;99638.84;1806291;79;21540;-60
2021/04/25 06:17:35;;;;;;;8.38;4.87;;;;;;;10.98;42.02;99641.03;1822108;78;21575;-61
2021/04/25 06:20:04;;;;;;;120.40;14.47;;;;;;;10.96;41.73;99637.64;1806291;79;21147;-61
2021/04/25 06:22:31;;;;;;;9.23;5.20;;;;;;;11.02;42.03;99644.34;1822137;78;21039;-61
2021/04/25 06:24:59;;;;;;;11.83;5.80;;;;;;;11.13;41.79;99637.41;1821997;78;21361;-61
2021/04/25 06:27:26;;;;;;;9.80;4.65;;;;;;;11.19;41.18;99635.37;1806272;79;21591;-61
2021/04/25 06:29:54;;;;;;;10.05;4.80;;;;;;;11.17;40.93;99628.12;1822121;78;21499;-61
2021/04/25 06:32:21;;;;;;;5.58;4.05;;;;;;;11.19;40.87;99629.36;1822233;78;21989;-61
2021/04/25 06:34:50;;;;;;;11.75;4.85;;;;;;;11.21;40.72;99628.81;1822338;78;21064;-62
2021/04/25 06:37:17;;;;;;;9.88;4.72;;;;;;;11.27;41.08;99622.91;1822148;78;21243;-61
2021/04/25 06:39:45;;;;;;;6.08;4.25;;;;;;;11.37;40.75;99637.70;1806353;79;21112;-61
2021/04/25 06:42:12;;;;;;;7.05;5.20;;;;;;;11.46;40.19;99626.87;1822139;78;21157;-61
2021/04/25 06:44:40;;;;;;;11.43;4.53;;;;;;;11.49;39.09;99628.51;1822163;78;21492;-60
2021/04/25 06:47:08;;;;;;;12.25;4.55;;;;;;;11.49;39.08;99631.11;1806492;79;21052;-61
2021/04/25 06:49:36;;;;;;;6.00;4.17;;;;;;;11.52;39.45;99635.74;1822180;78;21208;-61
2021/04/25 06:52:05;;;;;;;7.47;4.03;;;;;;;11.56;39.04;99625.59;1822210;78;21155;-61
2021/04/25 06:54:33;;;;;;;7.05;4.35;;;;;;;11.65;39.28;99630.84;1806406;79;21148;-61
2021/04/25 06:57:00;;;;;;;9.53;4.42;;;;;;;11.76;38.85;99628.66;1822091;78;21055;-60
2021/04/25 06:59:28;;;;;;;6.72;3.87;;;;;;;11.83;38.42;99634.44;1806445;79;21487;-61
2021/04/25 07:01:55;;;;;;;9.58;4.47;;;;;;;11.80;38.40;99628.05;1821990;78;21372;-61
2021/04/25 07:04:23;;;;;;;9.43;5.20;;;;;;;11.73;38.83;99627.00;1806357;79;21155;-62
2021/04/25 07:06:51;;;;;;;6.67;3.70;;;;;;;11.78;38.94;99626.00;1822138;78;21056;-62
2021/04/25 07:09:19;;;;;;;6.80;3.62;;;;;;;11.87;38.71;99617.75;1806362;79;21142;-61
2021/04/25 07:11:46;;;;;;;4.72;3.40;;;;;;;11.94;38.67;99625.25;1822182;78;21115;-60
2021/04/25 07:14:14;;;;;;;6.78;3.60;;;;;;;12.01;38.48;99615.37;1806426;79;21197;-61
2021/04/25 07:16:42;;;;;;;4.67;2.80;;;;;;;12.15;38.63;99615.61;1822077;78;21084;-62
2021/04/25 07:19:09;;;;;;;4.70;2.95;;;;;;;12.35;38.10;99611.63;1806452;79;21056;-61
2021/04/25 07:21:37;;;;;;;7.80;3.10;;;;;;;12.56;37.43;99610.24;1822014;78;21048;-61
2021/04/25 07:24:06;;;;;;;6.33;3.80;;;;;;;12.65;36.52;99610.64;1806391;79;21583;-60
2021/04/25 07:26:35;;;;;;;5.97;3.22;;;;;;;12.66;36.77;99607.11;1821939;78;21691;-61
2021/04/25 07:29:04;;;;;;;7.05;3.27;;;;;;;12.70;36.92;99606.05;1806334;79;21154;-62
2021/04/25 07:31:31;;;;;;;5.40;3.50;;;;;;;12.80;36.56;99599.91;1822144;78;21067;-62
2021/04/25 07:33:59;;;;;;;9.75;3.05;;;;;;;12.92;36.38;99603.25;1806350;79;21484;-64
2021/04/25 07:36:27;;;;;;;7.87;3.08;;;;;;;13.05;35.11;99602.17;1822198;78;21131;-60
2021/04/25 07:38:55;;;;;;;14.78;4.05;;;;;;;13.11;35.00;99605.34;1806426;79;22271;-61
2021/04/25 07:41:22;;;;;;;8.08;3.27;;;;;;;13.14;35.14;99606.11;1822020;78;21064;-62
2021/04/25 07:43:49;;;;;;;10.32;3.50;;;;;;;13.19;34.71;99613.30;1806374;79;21072;-62
2021/04/25 07:46:17;;;;;;;7.83;3.42;;;;;;;13.23;35.30;99598.67;1822109;78;21049;-63
2021/04/25 07:48:45;;;;;;;6.78;3.33;;;;;;;13.35;34.93;99598.54;1806358;78;21112;-61
2021/04/25 07:51:13;;;;;;;4.87;3.37;;;;;;;13.42;34.19;99590.75;1822120;78;21136;-62
2021/04/25 07:53:40;;;;;;;8.88;3.50;;;;;;;13.37;34.39;99586.25;1806345;79;21088;-62
2021/04/25 07:56:08;;;;;;;8.20;4.47;;;;;;;13.36;34.43;99575.41;1822122;78;21071;-61
2021/04/25 07:58:36;;;;;;;10.43;3.70;;;;;;;13.45;33.64;99580.15;1822055;78;21134;-62
2021/04/25 08:01:04;;;;;;;12.25;3.67;;;;;;;13.53;34.00;99580.61;1806294;79;21190;-63
2021/04/25 08:03:32;;;;;;;12.15;3.45;;;;;;;13.67;33.97;99581.19;1822137;78;21127;-62
2021/04/25 08:06:00;;;;;;;13.72;4.03;;;;;;;13.88;33.29;99577.45;1822032;78;21064;-61
2021/04/25 08:08:28;;;;;;;5.60;3.45;;;;;;;14.00;33.32;99582.47;1806376;79;21110;-62
2021/04/25 08:10:56;;;;;;;9.40;3.55;;;;;;;13.94;33.07;99572.36;1822085;78;21142;-60
2021/04/25 08:13:24;;;;;;;5.97;3.60;;;;;;;13.72;33.33;99586.57;1806364;79;21136;-61
2021/04/25 08:15:52;;;;;;;7.78;3.92;;;;;;;13.51;33.48;99576.39;1822034;78;21059;-61
2021/04/25 08:18:20;;;;;;;4.80;3.27;;;;;;;13.33;33.72;99575.56;1821953;78;21087;-62
2021/04/25 08:20:47;;;;;;;20.52;4.28;;;;;;;13.26;33.65;99575.02;1806373;79;21040;-61
2021/04/25 08:23:15;;;;;;;7.35;3.62;;;;;;;13.21;34.33;99570.95;1792392;78;21192;-61
2021/04/25 08:25:43;;;;;;;4.67;3.22;;;;;;;13.16;34.03;99575.12;1806371;78;21131;-62
2021/04/25 08:28:11;;;;;;;12.40;4.62;;;;;;;13.09;33.77;99578.91;1822059;78;21372;-61
2021/04/25 08:30:38;;;;;;;9.15;4.08;;;;;;;13.00;34.27;99563.23;1806267;79;21139;-60
2021/04/25 08:33:07;;;;;;;10.50;3.72;;;;;;;12.96;34.05;99576.54;1822155;78;21119;-60
2021/04/25 08:35:35;;;;;;;7.10;3.95;;;;;;;12.85;34.22;99567.91;1806423;79;22030;-61
2021/04/25 08:38:03;;;;;;;9.25;4.05;;;;;;;12.69;34.52;99564.37;1822007;78;21627;-61
2021/04/25 08:40:30;;;;;;;14.75;4.53;;;;;;;12.56;34.88;99572.41;1806330;79;21400;-61
2021/04/25 08:42:59;;;;;;;7.15;3.70;;;;;;;12.40;35.54;99583.55;1821737;78;21087;-61
2021/04/25 08:45:27;;;;;;;10.95;5.42;;;;;;;12.33;36.11;99576.11;1806335;79;21100;-61
2021/04/25 08:47:59;;;;;;;10.50;4.35;;;;;;;12.43;36.29;99572.98;1822059;78;21127;-62
2021/04/25 08:50:31;;;;;;;10.60;4.85;;;;;;;12.63;36.33;99573.33;1806531;79;21115;-61
2021/04/25 08:52:59;;;;;;;11.85;3.92;;;;;;;12.80;36.17;99571.20;1822174;78;22114;-61
2021/04/25 08:55:28;;;;;;;11.12;5.33;;;;;;;13.03;35.97;99570.92;1806225;79;21097;-61
2021/04/25 08:57:56;;;;;;;8.55;4.03;;;;;;;13.29;35.16;99561.81;1821998;78;21131;-61
2021/04/25 09:00:24;;;;;;;10.20;4.03;;;;;;;13.44;34.88;99557.55;1806316;79;21555;-61
2021/04/25 09:02:53;;;;;;;11.40;4.08;;;;;;;13.60;35.10;99547.98;1821903;78;21084;-61
2021/04/25 09:05:22;;;;;;;7.85;3.60;;;;;;;13.84;34.39;99551.54;1806354;79;21508;-62
2021/04/25 09:07:59;;;;;;;8.30;4.05;;;;;;;13.89;34.60;99554.30;1821995;78;21076;-62
2021/04/25 09:10:36;;;;;;;10.63;4.80;;;;;;;13.82;33.90;99551.63;1806357;79;21112;-62
2021/04/25 09:13:22;;;;;;;9.08;4.08;;;;;;;13.62;34.08;99551.37;1822082;78;21144;-62
2021/04/25 09:15:52;;;;;;;9.10;4.60;;;;;;;13.54;34.24;99550.10;1822139;78;21080;-61
2021/04/25 09:18:36;;;;;;;7.28;3.37;;;;;;;13.52;34.27;99553.25;1821962;78;21360;-62
2021/04/25 09:21:08;;;;;;;10.18;4.80;;;;;;;13.42;34.03;99540.66;1822071;78;21986;-62
2021/04/25 09:23:35;;;;;;;8.20;4.10;;;;;;;13.28;34.82;99545.75;1806562;79;21568;-63
2021/04/25 09:26:05;;;;;;;10.75;4.30;;;;;;;13.21;34.70;99540.45;1822015;78;21191;-62
2021/04/25 09:28:34;;;;;;;8.20;4.40;;;;;;;13.19;34.59;99539.68;1822064;78;21159;-62
2021/04/25 09:31:11;;;;;;;11.15;4.12;;;;;;;13.21;34.52;99537.84;1806290;79;21190;-64
2021/04/25 09:33:55;;;;;;;10.58;4.33;;;;;;;13.21;34.80;99543.06;1822031;78;21059;-63
2021/04/25 09:36:28;;;;;;;11.25;4.55;;;;;;;13.17;34.67;99539.41;1806463;79;22084;-61
2021/04/25 09:39:14;;;;;;;9.85;4.00;;;;;;;13.08;34.74;99534.98;1822021;78;21107;-60
2021/04/25 09:41:41;;;;;;;7.25;2.90;;;;;;;13.07;34.64;99533.75;1822074;78;21056;-61
2021/04/25 09:44:32;;;;;;;9.05;4.10;;;;;;;13.08;33.99;99524.53;1806322;79;21372;-61
2021/04/25 09:47:03;;;;;;;5.37;3.65;;;;;;;13.09;34.78;99514.94;1822013;78;21091;-62
2021/04/25 09:49:49;;;;;;;8.00;3.58;;;;;;;13.21;34.53;99520.86;1822153;78;21059;-62
2021/04/25 09:52:38;;;;;;;8.28;3.45;;;;;;;13.28;33.62;99509.64;1822042;78;21111;-62
2021/04/25 09:55:28;;;;;;;6.15;2.85;;;;;;;13.32;33.68;99515.09;1822177;78;21099;-62
2021/04/25 09:58:07;;;;;;;6.53;3.00;;;;;;;13.37;33.51;99506.56;1821989;78;21433;-62
2021/04/25 10:00:41;;;;;;;7.10;2.98;;;;;;;13.56;33.51;99507.29;1822089;78;21116;-64
2021/04/25 10:03:10;;;;;;;5.30;3.00;;;;;;;13.70;32.96;99498.70;1808749;79;21057;-61
2021/04/25 10:05:41;;;;;;;48.55;6.17;;;;;;;13.69;32.92;99497.86;1822027;78;21079;-62
2021/04/25 10:08:08;;;;;;;5.65;3.17;;;;;;;13.65;33.09;99498.09;1819110;78;21083;-62
2021/04/25 10:10:37;;;;;;;6.50;3.37;;;;;;;13.72;32.85;99493.78;1733518;79;22439;-62
2021/04/25 10:13:05;;;;;;;5.45;3.15;;;;;;;13.86;33.36;99499.56;1821962;78;21099;-63
2021/04/25 10:15:33;;;;;;;6.97;3.17;;;;;;;14.03;33.13;99497.32;1809389;79;21059;-62
2021/04/25 10:18:00;;;;;;;5.65;2.80;;;;;;;14.19;32.63;99485.57;1821988;78;22064;-62
2021/04/25 10:20:28;;;;;;;9.03;4.05;;;;;;;14.36;32.61;99473.69;1809432;79;21084;-61
2021/04/25 10:22:55;;;;;;;3.25;2.90;;;;;;;14.51;32.32;99470.22;1822066;78;21536;-61
2021/04/25 10:25:36;;;;;;;6.35;3.55;;;;;;;14.56;32.34;99476.05;1809298;79;21202;-62
2021/04/25 10:28:10;;;;;;;12.07;4.22;;;;;;;14.67;32.46;99470.17;1822051;78;21123;-61
2021/04/25 10:30:39;;;;;;;12.43;3.77;;;;;;;14.79;32.02;99470.28;1821617;78;21555;-60
2021/04/25 10:33:07;;;;;;;5.45;2.80;;;;;;;14.97;31.79;99464.92;1809446;79;21146;-62
2021/04/25 10:35:34;;;;;;;5.03;2.92;;;;;;;15.07;31.41;99465.58;1822009;78;21363;-61
2021/04/25 10:38:05;;;;;;;9.95;3.98;;;;;;;15.13;31.26;99456.52;1821913;78;21087;-61
2021/04/25 10:40:39;;;;;;;28.92;4.33;;;;;;;15.18;31.19;99455.78;1822150;78;21158;-62
2021/04/25 10:43:11;;;;;;;10.10;3.60;;;;;;;15.24;31.06;99455.85;1822065;78;21095;-62
2021/04/25 10:46:00;;;;;;;3.45;2.58;;;;;;;15.29;31.55;99449.41;1809501;79;21056;-63
2021/04/25 10:48:31;;;;;;;6.17;2.80;;;;;;;15.46;30.80;99453.14;1822107;78;21376;-61
2021/04/25 10:51:14;;;;;;;7.70;3.33;;;;;;;15.41;30.84;99450.42;1805370;79;21072;-63
2021/04/25 10:53:47;;;;;;;5.67;3.22;;;;;;;15.34;30.97;99445.20;1822099;78;21059;-61
2021/04/25 10:56:21;;;;;;;3.47;2.72;;;;;;;15.33;31.24;99446.14;1822035;78;21150;-62
2021/04/25 10:58:51;;;;;;;10.48;3.72;;;;;;;15.37;30.93;99447.64;1822347;78;21052;-61
2021/04/25 11:01:42;;;;;;;10.18;3.72;;;;;;;15.29;30.82;99440.70;1790308;78;21348;-61
2021/04/25 11:04:10;;;;;;;3.75;3.15;;;;;;;15.13;30.84;99439.02;1762737;81;21087;-61
2021/04/25 11:06:38;;;;;;;9.23;3.45;;;;;;;14.90;30.90;99432.16;1785504;80;21080;-62
2021/04/25 11:09:05;;;;;;;7.37;3.30;;;;;;;14.77;31.22;99445.16;1762791;81;21159;-62
2021/04/25 11:11:38;;;;;;;4.67;3.40;;;;;;;14.83;31.66;99433.83;1785545;80;21664;-62
2021/04/25 11:14:07;;;;;;;9.98;3.75;;;;;;;14.96;31.54;99431.81;1785576;80;21306;-60
2021/04/25 11:16:35;;;;;;;8.83;3.40;;;;;;;14.96;31.53;99426.57;1785529;80;21548;-62
2021/04/25 11:19:09;;;;;;;4.30;3.37;;;;;;;14.92;31.53;99428.98;1785676;80;21119;-61
2021/04/25 11:21:54;;;;;;;5.80;3.13;;;;;;;14.90;31.45;99429.08;1785956;80;21075;-62
2021/04/25 11:24:27;;;;;;;8.93;6.33;;;;;;;14.89;31.21;99426.55;1762898;80;21202;-61
2021/04/25 11:26:59;;;;;;;13.40;6.93;;;;;;;14.80;31.13;99426.62;1785921;80;21198;-62
2021/04/25 11:29:48;;;;;;;100.18;9.63;;;;;;;14.62;31.89;99424.63;1785620;80;21584;-62
2021/04/25 11:32:24;;;;;;;7.87;3.62;;;;;;;14.37;33.49;99443.98;1762975;81;21144;-61
2021/04/25 11:34:57;;;;;;;5.15;3.52;;;;;;;13.98;34.71;99449.69;1762975;81;20995;-61
2021/04/25 11:37:27;;;;;;;8.23;3.45;;;;;;;13.59;34.72;99452.72;1763110;81;21567;-62
2021/04/25 11:40:02;;;;;;;8.83;4.47;;;;;;;13.31;34.89;99442.42;1762876;81;21203;-61
2021/04/25 11:42:44;;;;;;;6.58;3.75;;;;;;;13.18;35.19;99450.99;1762925;81;21071;-62